sensor_id;sensor_type;location;lat;lon;timestamp;pressure;altitude;pressure_sealevel;temperature;humidity
46690;BME280;32423;45.398;10.874;2023-08-12T00:01:17;101408.63;;;25.49;50.44
46690;BME280;32423;45.398;10.874;2023-08-12T00:04:09;101404.22;;;25.48;50.16
46690;BME280;32423;45.398;10.874;2023-08-12T00:07:01;101401.03;;;25.46;50.54
46690;BME280;32423;45.398;10.874;2023-08-12T00:09:53;101393.09;;;25.63;51.65
46690;BME280;32423;45.398;10.874;2023-08-12T00:12:45;101398.56;;;25.94;51.28
46690;BME280;32423;45.398;10.874;2023-08-12T00:15:38;101397.75;;;26.05;50.76
46690;BME280;32423;45.398;10.874;2023-08-12T00:18:30;101399.78;;;25.86;50.07
46690;BME280;32423;45.398;10.874;2023-08-12T00:21:22;101396.59;;;25.95;50.51
46690;BME280;32423;45.398;10.874;2023-08-12T00:24:14;101397.00;;;25.83;50.28
46690;BME280;32423;45.398;10.874;2023-08-12T00:27:05;101391.00;;;25.95;50.59
46690;BME280;32423;45.398;10.874;2023-08-12T00:29:58;101397.31;;;26.10;50.49
46690;BME280;32423;45.398;10.874;2023-08-12T00:32:47;101386.94;;;26.21;50.01
46690;BME280;32423;45.398;10.874;2023-08-12T00:35:39;101392.09;;;26.26;49.89
46690;BME280;32423;45.398;10.874;2023-08-12T00:38:31;101398.06;;;26.28;49.61
46690;BME280;32423;45.398;10.874;2023-08-12T00:41:22;101392.88;;;26.30;49.61
46690;BME280;32423;45.398;10.874;2023-08-12T00:44:14;101398.47;;;26.30;49.31
46690;BME280;32423;45.398;10.874;2023-08-12T00:47:06;101393.69;;;26.30;49.43
46690;BME280;32423;45.398;10.874;2023-08-12T00:49:58;101397.66;;;26.29;49.45
46690;BME280;32423;45.398;10.874;2023-08-12T00:52:51;101399.66;;;26.29;49.43
46690;BME280;32423;45.398;10.874;2023-08-12T00:55:42;101396.47;;;26.27;49.33
46690;BME280;32423;45.398;10.874;2023-08-12T00:58:35;101395.69;;;26.23;49.50
46690;BME280;32423;45.398;10.874;2023-08-12T01:01:27;101398.84;;;26.21;49.56
46690;BME280;32423;45.398;10.874;2023-08-12T01:04:19;101387.69;;;26.21;49.83
46690;BME280;32423;45.398;10.874;2023-08-12T01:07:11;101393.28;;;26.21;50.01
46690;BME280;32423;45.398;10.874;2023-08-12T01:10:03;101389.72;;;26.17;49.96
46690;BME280;32423;45.398;10.874;2023-08-12T01:12:52;101390.91;;;26.20;50.18
46690;BME280;32423;45.398;10.874;2023-08-12T01:15:46;101382.13;;;26.18;50.03
46690;BME280;32423;45.398;10.874;2023-08-12T01:18:39;101386.91;;;26.17;50.08
46690;BME280;32423;45.398;10.874;2023-08-12T01:21:29;101376.56;;;26.18;50.25
46690;BME280;32423;45.398;10.874;2023-08-12T01:24:21;101377.34;;;26.18;50.47
46690;BME280;32423;45.398;10.874;2023-08-12T01:27:13;101378.56;;;26.17;50.32
46690;BME280;32423;45.398;10.874;2023-08-12T01:30:05;101376.97;;;26.20;50.64
46690;BME280;32423;45.398;10.874;2023-08-12T01:32:59;101371.78;;;26.22;50.36
46690;BME280;32423;45.398;10.874;2023-08-12T01:35:53;101366.59;;;26.20;50.71
46690;BME280;32423;45.398;10.874;2023-08-12T01:38:45;101368.59;;;26.20;50.70
46690;BME280;32423;45.398;10.874;2023-08-12T01:41:38;101371.78;;;26.18;50.70
46690;BME280;32423;45.398;10.874;2023-08-12T01:44:28;101371.00;;;26.14;50.71
46690;BME280;32423;45.398;10.874;2023-08-12T01:47:20;101372.22;;;26.13;51.00
46690;BME280;32423;45.398;10.874;2023-08-12T01:50:13;101367.81;;;26.12;50.94
46690;BME280;32423;45.398;10.874;2023-08-12T01:53:05;101373.41;;;26.12;50.91
46690;BME280;32423;45.398;10.874;2023-08-12T01:55:56;101367.44;;;26.10;51.15
46690;BME280;32423;45.398;10.874;2023-08-12T01:58:46;101371.03;;;26.11;51.24
46690;BME280;32423;45.398;10.874;2023-08-12T02:01:38;101355.91;;;26.08;51.21
46690;BME280;32423;45.398;10.874;2023-08-12T02:04:30;101363.06;;;26.09;51.41
46690;BME280;32423;45.398;10.874;2023-08-12T02:07:19;101361.09;;;26.10;51.16
46690;BME280;32423;45.398;10.874;2023-08-12T02:10:11;101346.41;;;25.98;51.10
46690;BME280;32423;45.398;10.874;2023-08-12T02:13:03;101355.91;;;26.08;51.24
46690;BME280;32423;45.398;10.874;2023-08-12T02:15:53;101353.94;;;26.05;51.41
46690;BME280;32423;45.398;10.874;2023-08-12T02:18:45;101355.50;;;26.06;51.44
46690;BME280;32423;45.398;10.874;2023-08-12T02:21:37;101347.56;;;26.01;51.08
46690;BME280;32423;45.398;10.874;2023-08-12T02:24:29;101346.38;;;26.06;51.30
46690;BME280;32423;45.398;10.874;2023-08-12T02:27:21;101348.34;;;26.09;51.32
46690;BME280;32423;45.398;10.874;2023-08-12T02:30:13;101343.16;;;26.07;51.46
46690;BME280;32423;45.398;10.874;2023-08-12T02:33:02;101339.16;;;26.08;51.24
46690;BME280;32423;45.398;10.874;2023-08-12T02:35:54;101342.78;;;26.02;51.64
46690;BME280;32423;45.398;10.874;2023-08-12T02:38:46;101341.56;;;26.06;51.50
46690;BME280;32423;45.398;10.874;2023-08-12T02:41:38;101332.44;;;26.02;51.50
46690;BME280;32423;45.398;10.874;2023-08-12T02:44:30;101338.00;;;26.02;51.50
46690;BME280;32423;45.398;10.874;2023-08-12T02:47:22;101332.44;;;26.02;51.34
46690;BME280;32423;45.398;10.874;2023-08-12T02:50:14;101332.81;;;26.04;51.31
46690;BME280;32423;45.398;10.874;2023-08-12T02:53:06;101334.03;;;26.03;51.60
46690;BME280;32423;45.398;10.874;2023-08-12T02:55:58;101332.03;;;26.04;51.35
46690;BME280;32423;45.398;10.874;2023-08-12T02:58:49;101325.25;;;26.01;51.59
46690;BME280;32423;45.398;10.874;2023-08-12T03:01:41;101328.03;;;26.01;51.40
46690;BME280;32423;45.398;10.874;2023-08-12T03:04:33;101324.06;;;26.02;51.39
46690;BME280;32423;45.398;10.874;2023-08-12T03:07:25;101322.47;;;26.01;51.71
46690;BME280;32423;45.398;10.874;2023-08-12T03:10:15;101316.13;;;25.97;51.76
46690;BME280;32423;45.398;10.874;2023-08-12T03:13:07;101322.53;;;25.94;51.60
46690;BME280;32423;45.398;10.874;2023-08-12T03:15:58;101314.97;;;25.91;51.92
46690;BME280;32423;45.398;10.874;2023-08-12T03:18:51;101320.97;;;25.89;51.85
46690;BME280;32423;45.398;10.874;2023-08-12T03:21:44;101317.38;;;25.89;51.65
46690;BME280;32423;45.398;10.874;2023-08-12T03:24:36;101315.78;;;25.88;51.90
46690;BME280;32423;45.398;10.874;2023-08-12T03:27:28;101314.97;;;25.87;51.92
46690;BME280;32423;45.398;10.874;2023-08-12T03:30:19;101312.59;;;25.86;52.10
46690;BME280;32423;45.398;10.874;2023-08-12T03:33:11;101319.38;;;25.88;51.89
46690;BME280;32423;45.398;10.874;2023-08-12T03:36:03;101317.75;;;25.87;51.72
46690;BME280;32423;45.398;10.874;2023-08-12T03:38:55;101316.97;;;25.87;51.66
46690;BME280;32423;45.398;10.874;2023-08-12T03:41:47;101316.97;;;25.87;51.95
46690;BME280;32423;45.398;10.874;2023-08-12T03:44:39;101318.97;;;25.86;51.96
46690;BME280;32423;45.398;10.874;2023-08-12T03:47:31;101320.16;;;25.85;51.90
46690;BME280;32423;45.398;10.874;2023-08-12T03:50:23;101320.59;;;25.84;51.92
46690;BME280;32423;45.398;10.874;2023-08-12T03:53:15;101326.16;;;25.84;51.84
46690;BME280;32423;45.398;10.874;2023-08-12T03:56:04;101322.97;;;25.82;52.01
46690;BME280;32423;45.398;10.874;2023-08-12T03:58:56;101319.38;;;25.81;51.98
46690;BME280;32423;45.398;10.874;2023-08-12T04:01:48;101323.34;;;25.80;51.92
46690;BME280;32423;45.398;10.874;2023-08-12T04:04:40;101316.63;;;25.78;52.05
46690;BME280;32423;45.398;10.874;2023-08-12T04:07:31;101320.56;;;25.80;51.93
46690;BME280;32423;45.398;10.874;2023-08-12T04:10:23;101323.78;;;25.79;51.87
46690;BME280;32423;45.398;10.874;2023-08-12T04:13:15;101325.78;;;25.78;51.77
46690;BME280;32423;45.398;10.874;2023-08-12T04:16:07;101328.16;;;25.76;52.16
46690;BME280;32423;45.398;10.874;2023-08-12T04:18:59;101325.38;;;25.76;51.96
46690;BME280;32423;45.398;10.874;2023-08-12T04:21:48;101321.41;;;25.74;51.90
46690;BME280;32423;45.398;10.874;2023-08-12T04:24:40;101321.81;;;25.72;51.93
46690;BME280;32423;45.398;10.874;2023-08-12T04:27:32;101315.44;;;25.72;52.01
46690;BME280;32423;45.398;10.874;2023-08-12T04:30:24;101323.81;;;25.72;52.15
46690;BME280;32423;45.398;10.874;2023-08-12T04:33:17;101324.59;;;25.72;52.09
46690;BME280;32423;45.398;10.874;2023-08-12T04:36:08;101317.44;;;25.75;52.16
46690;BME280;32423;45.398;10.874;2023-08-12T04:38:58;101319.84;;;25.69;52.21
46690;BME280;32423;45.398;10.874;2023-08-12T04:41:51;101319.44;;;25.67;52.03
46690;BME280;32423;45.398;10.874;2023-08-12T04:44:43;101317.47;;;25.68;52.31
46690;BME280;32423;45.398;10.874;2023-08-12T04:47:35;101319.84;;;25.69;52.20
46690;BME280;32423;45.398;10.874;2023-08-12T04:50:26;101319.03;;;25.69;52.26
46690;BME280;32423;45.398;10.874;2023-08-12T04:53:20;101317.44;;;25.71;52.05
46690;BME280;32423;45.398;10.874;2023-08-12T04:56:12;101323.81;;;25.72;52.22
46690;BME280;32423;45.398;10.874;2023-08-12T04:59:06;101325.41;;;25.73;52.20
46690;BME280;32423;45.398;10.874;2023-08-12T05:01:57;101324.56;;;25.76;52.13
46690;BME280;32423;45.398;10.874;2023-08-12T05:04:52;101320.59;;;25.77;52.22
46690;BME280;32423;45.398;10.874;2023-08-12T05:07:42;101323.78;;;25.75;52.27
46690;BME280;32423;45.398;10.874;2023-08-12T05:10:33;101327.81;;;25.67;52.40
46690;BME280;32423;45.398;10.874;2023-08-12T05:13:25;101317.50;;;25.57;52.70
46690;BME280;32423;45.398;10.874;2023-08-12T05:16:17;101321.06;;;25.58;52.71
46690;BME280;32423;45.398;10.874;2023-08-12T05:19:09;101313.50;;;25.54;52.91
46690;BME280;32423;45.398;10.874;2023-08-12T05:22:01;101317.47;;;25.53;52.90
46690;BME280;32423;45.398;10.874;2023-08-12T05:24:53;101322.25;;;25.57;52.75
46690;BME280;32423;45.398;10.874;2023-08-12T05:27:45;101319.47;;;25.57;52.80
46690;BME280;32423;45.398;10.874;2023-08-12T05:30:37;101317.47;;;25.61;52.81
46690;BME280;32423;45.398;10.874;2023-08-12T05:33:29;101321.44;;;25.63;52.77
46690;BME280;32423;45.398;10.874;2023-08-12T05:36:20;101319.06;;;25.62;52.96
46690;BME280;32423;45.398;10.874;2023-08-12T05:39:12;101324.25;;;25.63;52.97
46690;BME280;32423;45.398;10.874;2023-08-12T05:42:04;101327.00;;;25.67;52.67
46690;BME280;32423;45.398;10.874;2023-08-12T05:44:56;101326.22;;;25.70;52.49
46690;BME280;32423;45.398;10.874;2023-08-12T05:47:48;101322.22;;;25.71;52.71
46690;BME280;32423;45.398;10.874;2023-08-12T05:50:40;101324.59;;;25.72;52.61
46690;BME280;32423;45.398;10.874;2023-08-12T05:53:29;101325.78;;;25.71;52.89
46690;BME280;32423;45.398;10.874;2023-08-12T05:56:21;101329.00;;;25.70;52.76
46690;BME280;32423;45.398;10.874;2023-08-12T05:59:13;101329.41;;;25.65;53.52
46690;BME280;32423;45.398;10.874;2023-08-12T06:02:05;101327.00;;;25.74;53.06
46690;BME280;32423;45.398;10.874;2023-08-12T06:04:56;101330.56;;;25.71;53.16
46690;BME280;32423;45.398;10.874;2023-08-12T06:07:48;101333.28;;;25.92;52.86
46690;BME280;32423;45.398;10.874;2023-08-12T06:10:40;101325.69;;;25.96;53.02
46690;BME280;32423;45.398;10.874;2023-08-12T06:13:32;101326.91;;;25.95;52.99
46690;BME280;32423;45.398;10.874;2023-08-12T06:16:24;101324.50;;;26.01;52.99
46690;BME280;32423;45.398;10.874;2023-08-12T06:19:16;101328.81;;;26.09;52.83
46690;BME280;32423;45.398;10.874;2023-08-12T06:22:07;101329.97;;;26.22;52.66
46690;BME280;32423;45.398;10.874;2023-08-12T06:24:59;101328.31;;;26.31;52.42
46690;BME280;32423;45.398;10.874;2023-08-12T06:27:51;101329.41;;;26.48;51.97
46690;BME280;32423;45.398;10.874;2023-08-12T06:30:44;101332.94;;;26.52;52.02
46690;BME280;32423;45.398;10.874;2023-08-12T06:33:33;101325.22;;;26.74;51.39
46690;BME280;32423;45.398;10.874;2023-08-12T06:36:25;101330.66;;;26.95;50.71
46690;BME280;32423;45.398;10.874;2023-08-12T06:39:17;101331.38;;;27.03;50.67
46690;BME280;32423;45.398;10.874;2023-08-12T06:42:06;101326.00;;;27.26;49.14
46690;BME280;32423;45.398;10.874;2023-08-12T06:44:59;101332.09;;;27.55;49.09
46690;BME280;32423;45.398;10.874;2023-08-12T06:47:53;101333.06;;;28.05;47.27
46690;BME280;32423;45.398;10.874;2023-08-12T06:50:42;101328.25;;;28.36;46.59
46690;BME280;32423;45.398;10.874;2023-08-12T06:53:34;101328.72;;;28.58;46.64
46690;BME280;32423;45.398;10.874;2023-08-12T06:56:26;101334.38;;;28.55;43.51
46690;BME280;32423;45.398;10.874;2023-08-12T06:59:16;101322.81;;;29.03;41.11
46690;BME280;32423;45.398;10.874;2023-08-12T07:02:08;101327.53;;;29.29;40.22
46690;BME280;32423;45.398;10.874;2023-08-12T07:04:57;101330.97;;;29.40;39.93
46690;BME280;32423;45.398;10.874;2023-08-12T07:07:49;101342.28;;;29.10;41.28
46690;BME280;32423;45.398;10.874;2023-08-12T07:10:42;101334.28;;;30.30;38.64
46690;BME280;32423;45.398;10.874;2023-08-12T07:13:31;101337.66;;;31.38;35.90
46690;BME280;32423;45.398;10.874;2023-08-12T07:16:23;101335.34;;;33.18;32.74
46690;BME280;32423;45.398;10.874;2023-08-12T07:19:13;101342.19;;;35.05;28.72
46690;BME280;32423;45.398;10.874;2023-08-12T07:22:05;101348.03;;;36.77;26.90
46690;BME280;32423;45.398;10.874;2023-08-12T07:24:54;101342.34;;;38.22;25.25
46690;BME280;32423;45.398;10.874;2023-08-12T07:27:45;101348.19;;;36.40;27.18
46690;BME280;32423;45.398;10.874;2023-08-12T07:30:37;101339.81;;;34.46;30.27
46690;BME280;32423;45.398;10.874;2023-08-12T07:33:29;101346.69;;;36.54;26.29
46690;BME280;32423;45.398;10.874;2023-08-12T07:36:21;101352.13;;;36.76;25.62
46690;BME280;32423;45.398;10.874;2023-08-12T07:39:13;101349.94;;;35.69;26.24
46690;BME280;32423;45.398;10.874;2023-08-12T07:42:04;101353.88;;;38.47;23.15
46690;BME280;32423;45.398;10.874;2023-08-12T07:44:56;101353.34;;;37.46;25.47
46690;BME280;32423;45.398;10.874;2023-08-12T07:47:48;101355.25;;;41.10;20.63
46690;BME280;32423;45.398;10.874;2023-08-12T07:50:40;101341.94;;;39.19;23.26
46690;BME280;32423;45.398;10.874;2023-08-12T07:53:32;101350.63;;;38.89;23.96
46690;BME280;32423;45.398;10.874;2023-08-12T07:56:21;101357.56;;;42.10;20.24
46690;BME280;32423;45.398;10.874;2023-08-12T07:59:13;101346.44;;;39.25;22.15
46690;BME280;32423;45.398;10.874;2023-08-12T08:02:05;101354.91;;;40.97;20.68
46690;BME280;32423;45.398;10.874;2023-08-12T08:04:55;101340.72;;;36.19;26.14
46690;BME280;32423;45.398;10.874;2023-08-12T08:07:45;101346.78;;;33.36;30.54
46690;BME280;32423;45.398;10.874;2023-08-12T08:10:37;101356.63;;;40.41;21.58
46690;BME280;32423;45.398;10.874;2023-08-12T08:13:29;101356.34;;;43.60;18.52
46690;BME280;32423;45.398;10.874;2023-08-12T08:16:21;101366.94;;;43.70;18.71
46690;BME280;32423;45.398;10.874;2023-08-12T08:19:11;101348.28;;;37.12;25.97
46690;BME280;32423;45.398;10.874;2023-08-12T08:22:02;101343.78;;;34.57;30.18
46690;BME280;32423;45.398;10.874;2023-08-12T08:24:55;101341.38;;;32.82;33.18
46690;BME280;32423;45.398;10.874;2023-08-12T08:27:44;101334.84;;;31.38;35.73
46690;BME280;32423;45.398;10.874;2023-08-12T08:30:34;101330.84;;;30.91;35.97
46690;BME280;32423;45.398;10.874;2023-08-12T08:33:24;101333.00;;;29.36;40.05
46690;BME280;32423;45.398;10.874;2023-08-12T08:36:16;101341.97;;;30.10;38.90
46690;BME280;32423;45.398;10.874;2023-08-12T08:39:05;101333.91;;;29.92;38.68
46690;BME280;32423;45.398;10.874;2023-08-12T08:42:01;101333.63;;;29.87;38.45
46690;BME280;32423;45.398;10.874;2023-08-12T08:44:58;101333.41;;;30.17;38.13
46690;BME280;32423;45.398;10.874;2023-08-12T08:47:55;101323.94;;;30.27;38.25
46690;BME280;32423;45.398;10.874;2023-08-12T08:50:48;101332.88;;;30.38;38.16
46690;BME280;32423;45.398;10.874;2023-08-12T08:53:43;101322.09;;;30.21;38.61
46690;BME280;32423;45.398;10.874;2023-08-12T08:56:36;101325.31;;;30.19;38.98
46690;BME280;32423;45.398;10.874;2023-08-12T08:59:31;101314.09;;;30.19;39.36
46690;BME280;32423;45.398;10.874;2023-08-12T09:02:21;101319.16;;;30.08;39.36
46690;BME280;32423;45.398;10.874;2023-08-12T09:05:18;101323.44;;;30.12;38.97
46690;BME280;32423;45.398;10.874;2023-08-12T09:08:13;101311.28;;;30.19;39.04
46690;BME280;32423;45.398;10.874;2023-08-12T09:11:09;101312.44;;;30.22;38.60
46690;BME280;32423;45.398;10.874;2023-08-12T09:14:03;101317.28;;;30.21;39.28
46690;BME280;32423;45.398;10.874;2023-08-12T09:16:55;101314.09;;;30.19;39.07
46690;BME280;32423;45.398;10.874;2023-08-12T09:19:50;101311.41;;;30.32;38.75
46690;BME280;32423;45.398;10.874;2023-08-12T09:22:42;101312.63;;;30.31;37.79
46690;BME280;32423;45.398;10.874;2023-08-12T09:25:32;101310.63;;;30.31;37.96
46690;BME280;32423;45.398;10.874;2023-08-12T09:28:26;101306.38;;;30.07;39.05
46690;BME280;32423;45.398;10.874;2023-08-12T09:31:29;101310.03;;;29.84;38.69
46690;BME280;32423;45.398;10.874;2023-08-12T09:34:21;101316.16;;;29.99;38.47
46690;BME280;32423;45.398;10.874;2023-08-12T09:37:18;101309.28;;;30.20;38.87
46690;BME280;32423;45.398;10.874;2023-08-12T09:40:13;101307.47;;;30.45;38.38
46690;BME280;32423;45.398;10.874;2023-08-12T09:43:08;101303.47;;;30.46;38.26
46690;BME280;32423;45.398;10.874;2023-08-12T09:46:04;101300.88;;;30.36;38.64
46690;BME280;32423;45.398;10.874;2023-08-12T09:48:59;101301.75;;;30.33;38.11
46690;BME280;32423;45.398;10.874;2023-08-12T09:51:52;101302.63;;;30.30;38.21
46690;BME280;32423;45.398;10.874;2023-08-12T09:54:48;101298.34;;;30.41;39.07
46690;BME280;32423;45.398;10.874;2023-08-12T09:57:44;101303.66;;;30.55;39.07
46690;BME280;32423;45.398;10.874;2023-08-12T10:00:41;101301.56;;;30.24;38.67
46690;BME280;32423;45.398;10.874;2023-08-12T10:03:33;101299.47;;;30.44;38.73
46690;BME280;32423;45.398;10.874;2023-08-12T10:06:27;101289.75;;;30.32;38.77
46690;BME280;32423;45.398;10.874;2023-08-12T10:09:22;101292.28;;;30.27;39.35
46690;BME280;32423;45.398;10.874;2023-08-12T10:12:17;101284.66;;;30.27;39.32
46690;BME280;32423;45.398;10.874;2023-08-12T10:15:13;101289.75;;;30.32;39.32
46690;BME280;32423;45.398;10.874;2023-08-12T10:18:09;101284.66;;;30.43;39.51
46690;BME280;32423;45.398;10.874;2023-08-12T10:21:04;101283.09;;;30.42;39.82
46690;BME280;32423;45.398;10.874;2023-08-12T10:24:05;101288.19;;;30.64;39.20
46690;BME280;32423;45.398;10.874;2023-08-12T10:27:00;101276.09;;;30.67;39.47
46690;BME280;32423;45.398;10.874;2023-08-12T10:29:54;101270.91;;;30.65;39.67
46690;BME280;32423;45.398;10.874;2023-08-12T10:32:48;101267.31;;;30.65;39.08
46690;BME280;32423;45.398;10.874;2023-08-12T10:35:46;101262.31;;;30.72;39.23
46690;BME280;32423;45.398;10.874;2023-08-12T10:38:40;101258.06;;;30.80;38.91
46690;BME280;32423;45.398;10.874;2023-08-12T10:41:37;101256.13;;;30.93;38.68
46690;BME280;32423;45.398;10.874;2023-08-12T10:44:50;101261.41;;;31.08;37.83
46690;BME280;32423;45.398;10.874;2023-08-12T10:47:50;101246.81;;;31.13;38.26
46690;BME280;32423;45.398;10.874;2023-08-12T10:50:46;101254.88;;;31.11;38.39
46690;BME280;32423;45.398;10.874;2023-08-12T10:53:40;101231.97;;;30.96;38.87
46690;BME280;32423;45.398;10.874;2023-08-12T10:59:59;101239.75;;;31.21;38.59
46690;BME280;32423;45.398;10.874;2023-08-12T11:02:58;101234.97;;;31.34;38.50
46690;BME280;32423;45.398;10.874;2023-08-12T11:05:53;101228.63;;;31.17;38.93
46690;BME280;32423;45.398;10.874;2023-08-12T11:08:54;101225.28;;;31.35;38.01
46690;BME280;32423;45.398;10.874;2023-08-12T11:11:58;101224.72;;;31.27;37.36
46690;BME280;32423;45.398;10.874;2023-08-12T11:14:56;101233.88;;;31.15;37.64
46690;BME280;32423;45.398;10.874;2023-08-12T11:17:52;101223.13;;;31.26;37.75
46690;BME280;32423;45.398;10.874;2023-08-12T11:20:47;101215.47;;;31.27;38.44
46690;BME280;32423;45.398;10.874;2023-08-12T11:23:43;101222.44;;;31.22;38.20
46690;BME280;32423;45.398;10.874;2023-08-12T11:26:39;101227.38;;;31.18;38.40
46690;BME280;32423;45.398;10.874;2023-08-12T11:29:35;101220.31;;;31.26;38.19
46690;BME280;32423;45.398;10.874;2023-08-12T11:32:27;101208.16;;;31.17;38.13
46690;BME280;32423;45.398;10.874;2023-08-12T11:35:23;101210.84;;;31.20;38.18
46690;BME280;32423;45.398;10.874;2023-08-12T11:38:15;101215.38;;;31.30;39.02
46690;BME280;32423;45.398;10.874;2023-08-12T11:41:09;101206.38;;;31.23;38.75
46690;BME280;32423;45.398;10.874;2023-08-12T11:44:01;101209.19;;;31.35;38.86
46690;BME280;32423;45.398;10.874;2023-08-12T11:46:56;101210.59;;;31.43;38.37
46690;BME280;32423;45.398;10.874;2023-08-12T11:49:51;101199.53;;;31.36;37.82
46690;BME280;32423;45.398;10.874;2023-08-12T11:52:46;101196.84;;;31.46;37.66
46690;BME280;32423;45.398;10.874;2023-08-12T11:55:48;101203.50;;;31.52;37.73
46690;BME280;32423;45.398;10.874;2023-08-12T11:58:43;101196.66;;;31.53;37.66
46690;BME280;32423;45.398;10.874;2023-08-12T12:01:35;101199.25;;;31.60;37.49
46690;BME280;32423;45.398;10.874;2023-08-12T12:04:27;101193.88;;;31.65;37.77
46690;BME280;32423;45.398;10.874;2023-08-12T12:07:25;101190.50;;;31.58;37.32
46690;BME280;32423;45.398;10.874;2023-08-12T12:10:25;101183.50;;;31.75;37.64
46690;BME280;32423;45.398;10.874;2023-08-12T12:13:20;101185.75;;;31.80;37.01
46690;BME280;32423;45.398;10.874;2023-08-12T12:16:16;101178.81;;;31.84;37.02
46690;BME280;32423;45.398;10.874;2023-08-12T12:19:11;101181.72;;;31.81;37.33
46690;BME280;32423;45.398;10.874;2023-08-12T12:22:06;101173.53;;;31.74;37.49
46690;BME280;32423;45.398;10.874;2023-08-12T12:25:08;101175.78;;;31.79;36.85
46690;BME280;32423;45.398;10.874;2023-08-12T12:28:03;101168.09;;;31.92;37.32
46690;BME280;32423;45.398;10.874;2023-08-12T12:30:57;101167.31;;;31.92;37.03
46690;BME280;32423;45.398;10.874;2023-08-12T12:33:47;101167.34;;;31.79;36.92
46690;BME280;32423;45.398;10.874;2023-08-12T12:36:37;101169.25;;;31.82;36.89
46690;BME280;32423;45.398;10.874;2023-08-12T12:39:32;101167.09;;;31.86;37.16
46690;BME280;32423;45.398;10.874;2023-08-12T12:42:27;101154.81;;;31.80;37.55
46690;BME280;32423;45.398;10.874;2023-08-12T12:45:21;101156.84;;;31.92;37.38
46690;BME280;32423;45.398;10.874;2023-08-12T12:48:13;101156.72;;;31.96;36.58
46690;BME280;32423;45.398;10.874;2023-08-12T12:51:08;101153.50;;;31.84;36.82
46690;BME280;32423;45.398;10.874;2023-08-12T12:54:00;101156.06;;;31.92;36.59
46690;BME280;32423;45.398;10.874;2023-08-12T12:56:55;101158.31;;;32.09;36.78
46690;BME280;32423;45.398;10.874;2023-08-12T12:59:46;101147.75;;;31.88;37.18
46690;BME280;32423;45.398;10.874;2023-08-12T13:02:38;101146.72;;;31.95;37.35
46690;BME280;32423;45.398;10.874;2023-08-12T13:05:30;101154.94;;;32.02;36.96
46690;BME280;32423;45.398;10.874;2023-08-12T13:08:20;101151.66;;;32.03;37.37
46690;BME280;32423;45.398;10.874;2023-08-12T13:11:14;101144.59;;;32.11;36.87
46690;BME280;32423;45.398;10.874;2023-08-12T13:14:09;101141.66;;;32.02;36.92
46690;BME280;32423;45.398;10.874;2023-08-12T13:17:01;101146.03;;;32.03;36.54
46690;BME280;32423;45.398;10.874;2023-08-12T13:19:50;101139.31;;;31.88;36.74
46690;BME280;32423;45.398;10.874;2023-08-12T13:22:42;101138.50;;;31.88;36.13
46690;BME280;32423;45.398;10.874;2023-08-12T13:25:35;101131.97;;;31.91;36.65
46690;BME280;32423;45.398;10.874;2023-08-12T13:28:27;101123.66;;;32.00;36.36
46690;BME280;32423;45.398;10.874;2023-08-12T13:31:19;101125.75;;;32.08;36.24
46690;BME280;32423;45.398;10.874;2023-08-12T13:34:06;101116.19;;;32.06;36.36
46690;BME280;32423;45.398;10.874;2023-08-12T13:36:58;101117.31;;;32.08;35.96
46690;BME280;32423;45.398;10.874;2023-08-12T13:39:51;101110.47;;;32.09;36.22
46690;BME280;32423;45.398;10.874;2023-08-12T13:42:43;101109.09;;;32.01;36.69
46690;BME280;32423;45.398;10.874;2023-08-12T13:45:34;101110.13;;;32.07;36.55
46690;BME280;32423;45.398;10.874;2023-08-12T13:48:26;101106.63;;;32.03;36.59
46690;BME280;32423;45.398;10.874;2023-08-12T13:51:18;101100.09;;;32.06;36.47
46690;BME280;32423;45.398;10.874;2023-08-12T13:54:08;101089.16;;;32.21;35.67
46690;BME280;32423;45.398;10.874;2023-08-12T13:56:57;101092.97;;;32.27;36.11
46690;BME280;32423;45.398;10.874;2023-08-12T13:59:47;101084.06;;;32.29;36.26
46690;BME280;32423;45.398;10.874;2023-08-12T14:02:32;101079.81;;;32.24;36.54
46690;BME280;32423;45.398;10.874;2023-08-12T14:05:19;101077.78;;;32.24;36.09
46690;BME280;32423;45.398;10.874;2023-08-12T14:08:11;101071.81;;;32.22;36.55
46690;BME280;32423;45.398;10.874;2023-08-12T14:10:57;101073.41;;;32.23;36.50
46690;BME280;32423;45.398;10.874;2023-08-12T14:13:49;101068.34;;;32.18;36.62
46690;BME280;32423;45.398;10.874;2023-08-12T14:16:41;101059.13;;;32.05;37.18
46690;BME280;32423;45.398;10.874;2023-08-12T14:19:33;101063.44;;;31.97;37.05
46690;BME280;32423;45.398;10.874;2023-08-12T14:22:23;101052.31;;;31.94;37.55
46690;BME280;32423;45.398;10.874;2023-08-12T14:25:10;101053.97;;;31.91;36.87
46690;BME280;32423;45.398;10.874;2023-08-12T14:27:55;101051.06;;;31.95;37.46
46690;BME280;32423;45.398;10.874;2023-08-12T14:30:45;101049.50;;;31.94;37.15
46690;BME280;32423;45.398;10.874;2023-08-12T14:33:34;101056.47;;;31.89;37.47
46690;BME280;32423;45.398;10.874;2023-08-12T14:36:24;101034.34;;;31.78;37.31
46690;BME280;32423;45.398;10.874;2023-08-12T14:39:21;101037.09;;;31.91;37.57
46690;BME280;32423;45.398;10.874;2023-08-12T14:42:08;101038.53;;;31.96;37.34
46690;BME280;32423;45.398;10.874;2023-08-12T14:44:58;101032.91;;;31.96;37.57
46690;BME280;32423;45.398;10.874;2023-08-12T14:47:50;101025.31;;;31.83;37.61
46690;BME280;32423;45.398;10.874;2023-08-12T14:50:39;101020.13;;;31.82;37.93
46690;BME280;32423;45.398;10.874;2023-08-12T14:53:31;101025.53;;;31.89;37.98